Time;durP1;ratioP1;P1;durP2;ratioP2;P2;SDS_P1;SDS_P2;PMS_P1;PMS_P2;Temp;Humidity;BMP_temperature;BMP_pressure;BME280_temperature;BME280_humidity;BME280_pressure;Samples;Min_cycle;Max_cycle;Signal;HPM_P1;HPM_P2
2022/01/16 00:04:38;;;;;;;73.20;28.70;;;2.50;99.90;;;;;;5133690;27;20414;-84
2022/01/16 00:07:04;;;;;;;81.15;31.13;;;2.50;99.90;;;;;;5101080;27;20043;-80
2022/01/16 00:09:35;;;;;;;83.22;30.98;;;2.50;99.90;;;;;;5087677;27;20051;-80
2022/01/16 00:12:04;;;;;;;77.82;31.52;;;2.50;99.90;;;;;;5090597;28;20060;-81
2022/01/16 00:14:30;;;;;;;84.75;30.75;;;2.50;99.90;;;;;;5111195;27;20703;-80
2022/01/16 00:16:57;;;;;;;97.13;35.53;;;2.50;99.90;;;;;;5117494;27;20119;-80
2022/01/16 00:19:22;;;;;;;88.40;32.47;;;2.50;99.90;;;;;;5117758;27;20051;-80
2022/01/16 00:21:48;;;;;;;91.85;33.45;;;2.50;99.90;;;;;;5086521;28;20047;-79
2022/01/16 00:24:14;;;;;;;90.05;34.20;;;2.50;99.90;;;;;;5081485;27;20491;-80
2022/01/16 00:26:41;;;;;;;89.03;33.60;;;2.50;99.90;;;;;;5129329;27;20063;-80
2022/01/16 00:29:08;;;;;;;105.75;36.13;;;2.40;99.90;;;;;;5129918;27;20082;-80
2022/01/16 00:31:35;;;;;;;90.85;35.58;;;2.50;99.90;;;;;;5115319;27;20047;-80
2022/01/16 00:34:01;;;;;;;108.75;37.72;;;2.50;99.90;;;;;;5113416;27;20043;-82
2022/01/16 00:36:26;;;;;;;115.53;39.22;;;2.40;99.90;;;;;;5130341;27;20238;-80
2022/01/16 00:38:53;;;;;;;100.78;38.00;;;2.40;99.90;;;;;;5104679;27;20129;-80
2022/01/16 00:41:20;;;;;;;105.13;38.40;;;2.40;99.90;;;;;;5117569;27;20047;-80
2022/01/16 00:43:48;;;;;;;110.63;38.22;;;2.40;99.90;;;;;;5087167;28;20469;-82
2022/01/16 00:46:14;;;;;;;108.82;38.15;;;2.50;99.90;;;;;;5068531;28;20036;-79
2022/01/16 00:48:40;;;;;;;111.35;38.90;;;2.50;99.90;;;;;;5096259;28;20047;-80
2022/01/16 00:51:06;;;;;;;104.18;37.90;;;2.40;99.90;;;;;;5113355;28;20672;-80
2022/01/16 00:53:32;;;;;;;107.50;39.08;;;2.50;99.90;;;;;;5114476;27;20488;-80
2022/01/16 00:55:57;;;;;;;112.20;39.67;;;2.50;99.90;;;;;;5111632;27;20053;-81
2022/01/16 00:58:23;;;;;;;109.70;39.97;;;2.50;99.90;;;;;;5090384;27;20051;-80
2022/01/16 01:00:49;;;;;;;119.18;39.30;;;2.50;99.90;;;;;;5082245;27;20043;-80
2022/01/16 01:03:15;;;;;;;116.63;40.55;;;2.50;99.90;;;;;;5103717;27;20547;-80
2022/01/16 01:05:42;;;;;;;124.43;40.28;;;2.50;99.90;;;;;;5117071;27;20042;-80
2022/01/16 01:08:08;;;;;;;124.32;41.33;;;2.50;99.90;;;;;;5085142;27;20106;-80
2022/01/16 01:10:38;;;;;;;124.60;42.45;;;2.50;99.90;;;;;;5100194;27;20102;-80
2022/01/16 01:16:04;;;;;;;;;;;2.50;99.90;;;;;;5114826;27;20055;-80
2022/01/16 01:18:33;;;;;;;130.45;43.17;;;2.50;99.90;;;;;;5096715;28;20276;-80
2022/01/16 01:21:01;;;;;;;122.45;41.28;;;2.50;99.90;;;;;;5100902;28;20048;-80
2022/01/16 01:23:27;;;;;;;141.68;44.85;;;2.50;99.90;;;;;;5104711;28;20100;-80
2022/01/16 01:25:53;;;;;;;141.98;46.25;;;2.50;99.90;;;;;;5099035;27;20129;-80
2022/01/16 01:28:19;;;;;;;133.68;44.53;;;2.40;99.90;;;;;;5099138;27;20051;-80
2022/01/16 01:30:45;;;;;;;149.45;47.55;;;2.50;99.90;;;;;;5118707;27;20047;-80
2022/01/16 01:33:13;;;;;;;156.40;46.92;;;2.60;99.90;;;;;;5113091;27;20039;-80
2022/01/16 01:35:39;;;;;;;155.65;46.63;;;2.60;99.90;;;;;;5115081;27;20086;-80
2022/01/16 01:38:07;;;;;;;159.38;47.30;;;2.50;99.90;;;;;;5091225;27;20083;-80
2022/01/16 01:40:33;;;;;;;144.68;45.35;;;2.50;99.90;;;;;;5133434;27;20062;-79
2022/01/16 01:51:44;;;;;;;164.50;48.40;;;2.50;99.90;;;;;;5100717;27;20050;-79
2022/01/16 01:54:12;;;;;;;188.15;49.88;;;2.50;99.90;;;;;;5123890;27;20059;-79
2022/01/16 01:56:39;;;;;;;171.70;49.63;;;2.60;99.90;;;;;;5095896;28;20070;-80
2022/01/16 01:59:06;;;;;;;187.13;51.17;;;2.60;99.90;;;;;;5082612;27;20054;-80
2022/01/16 02:01:33;;;;;;;185.88;49.95;;;2.50;99.90;;;;;;5116283;27;20047;-80
2022/01/16 02:03:59;;;;;;;164.93;49.10;;;2.60;99.90;;;;;;5112403;28;20047;-80
2022/01/16 02:06:28;;;;;;;175.63;48.53;;;2.60;99.90;;;;;;5090086;27;20118;-80
2022/01/16 02:08:56;;;;;;;183.20;49.72;;;2.60;99.90;;;;;;5114644;27;20054;-80
2022/01/16 02:11:26;;;;;;;184.70;49.00;;;2.60;99.90;;;;;;5121629;27;20043;-80
2022/01/16 02:14:13;;;;;;;171.35;48.97;;;2.70;99.90;;;;;;5137352;27;20055;-80
2022/01/16 02:28:11;;;;;;;210.20;52.60;;;2.70;99.90;;;;;;5131378;27;20101;-84
2022/01/16 02:35:53;;;;;;;205.10;53.03;;;2.80;99.90;;;;;;5114483;28;20053;-80
2022/01/16 02:38:21;;;;;;;222.45;55.50;;;2.80;99.90;;;;;;5083483;28;20053;-79
2022/01/16 02:40:59;;;;;;;236.10;55.58;;;2.80;99.90;;;;;;5110354;28;20534;-79
2022/01/16 02:43:31;;;;;;;247.05;56.55;;;2.90;99.90;;;;;;5111346;28;20043;-80
2022/01/16 02:46:45;;;;;;;247.32;57.63;;;2.90;99.90;;;;;;5095692;28;20453;-80
2022/01/16 02:48:48;;;;;;;252.38;57.10;;;3.00;99.90;;;;;;5115174;28;20047;-80
2022/01/16 02:51:19;;;;;;;260.50;57.78;;;3.00;99.90;;;;;;5132063;28;20039;-80
2022/01/16 02:53:46;;;;;;;253.55;58.60;;;3.10;99.90;;;;;;5113716;27;20368;-80
2022/01/16 02:56:13;;;;;;;271.92;60.53;;;3.10;99.90;;;;;;5119481;27;20491;-80
2022/01/16 02:58:39;;;;;;;280.15;60.25;;;3.10;99.90;;;;;;5134799;27;20401;-80
2022/01/16 03:01:05;;;;;;;252.48;60.35;;;3.20;99.90;;;;;;5105947;27;20056;-80
2022/01/16 03:03:32;;;;;;;261.50;60.10;;;3.20;99.90;;;;;;5093813;27;20070;-79
2022/01/16 03:05:57;;;;;;;284.58;62.97;;;3.20;99.90;;;;;;5119324;27;20047;-79
2022/01/16 03:08:23;;;;;;;281.83;62.28;;;3.20;99.90;;;;;;5106781;27;20159;-79
2022/01/16 03:13:33;;;;;;;304.08;64.28;;;3.30;99.90;;;;;;5135307;27;20061;-80
2022/01/16 03:16:00;;;;;;;360.75;64.60;;;3.40;99.90;;;;;;5104370;27;20043;-80
2022/01/16 03:23:35;;;;;;;310.58;66.00;;;3.40;99.90;;;;;;5139307;27;20058;-80
2022/01/16 03:26:02;;;;;;;305.83;68.57;;;3.50;99.90;;;;;;5139462;27;20490;-79
2022/01/16 03:28:28;;;;;;;285.60;67.97;;;3.40;99.90;;;;;;5103529;27;20038;-79
2022/01/16 03:30:55;;;;;;;303.73;65.45;;;3.50;99.90;;;;;;5099041;27;20039;-82
2022/01/16 03:33:22;;;;;;;291.23;66.28;;;3.40;99.90;;;;;;5139563;27;20043;-80
2022/01/16 03:35:48;;;;;;;276.48;64.35;;;3.50;99.90;;;;;;5101567;27;20471;-83
2022/01/16 03:38:15;;;;;;;284.23;67.90;;;3.50;99.90;;;;;;5122104;27;20061;-80
2022/01/16 03:40:41;;;;;;;273.33;64.18;;;3.60;99.90;;;;;;5138295;27;20487;-80
2022/01/16 03:43:14;;;;;;;271.40;67.53;;;3.60;99.90;;;;;;5115718;27;20047;-80
2022/01/16 03:45:45;;;;;;;259.73;65.30;;;3.60;99.90;;;;;;5101117;27;20039;-80
2022/01/16 03:48:12;;;;;;;257.92;67.50;;;3.60;99.90;;;;;;5084755;27;20078;-81
2022/01/16 03:50:38;;;;;;;251.20;65.82;;;3.70;99.90;;;;;;5101061;27;20054;-80
2022/01/16 03:53:05;;;;;;;246.35;65.70;;;3.70;99.90;;;;;;5128829;27;20395;-80
2022/01/16 03:55:32;;;;;;;239.82;63.97;;;3.70;99.90;;;;;;5102283;27;20051;-79
2022/01/16 03:57:58;;;;;;;240.65;65.47;;;3.70;99.90;;;;;;5094741;27;20054;-80
2022/01/16 04:00:24;;;;;;;238.13;64.78;;;3.80;99.90;;;;;;5103013;27;20047;-80
2022/01/16 04:02:50;;;;;;;219.38;65.03;;;3.80;99.90;;;;;;5138905;27;20047;-80
2022/01/16 04:05:16;;;;;;;219.93;61.90;;;3.80;99.90;;;;;;5104864;27;20041;-80
2022/01/16 04:07:42;;;;;;;235.45;65.88;;;3.80;99.90;;;;;;5086612;27;20392;-80
2022/01/16 04:10:08;;;;;;;222.60;63.15;;;3.80;99.90;;;;;;5121506;27;20046;-80
2022/01/16 04:12:37;;;;;;;229.20;62.92;;;3.90;99.90;;;;;;5107072;27;20039;-80
2022/01/16 04:17:42;;;;;;;211.32;62.45;;;3.90;99.90;;;;;;5121092;27;20050;-80
2022/01/16 04:20:09;;;;;;;219.18;61.97;;;3.80;99.90;;;;;;5118088;27;20043;-80
2022/01/16 04:22:34;;;;;;;205.00;61.28;;;3.90;99.90;;;;;;5117903;27;20043;-80
2022/01/16 04:25:00;;;;;;;210.95;63.85;;;3.90;99.90;;;;;;5112326;27;20400;-79
2022/01/16 04:27:26;;;;;;;219.57;63.58;;;3.90;99.90;;;;;;5120527;27;20038;-80
2022/01/16 04:29:51;;;;;;;211.75;61.40;;;3.90;99.90;;;;;;5105923;27;20426;-80
2022/01/16 04:32:17;;;;;;;216.02;64.45;;;3.90;99.90;;;;;;5119845;27;20073;-80
2022/01/16 04:34:43;;;;;;;215.52;63.22;;;3.80;99.90;;;;;;5103531;27;20085;-81
2022/01/16 04:37:08;;;;;;;210.35;62.63;;;4.00;99.90;;;;;;5112158;27;20118;-80
2022/01/16 04:39:36;;;;;;;222.55;63.78;;;3.90;99.90;;;;;;5131114;27;20376;-80
2022/01/16 04:44:49;;;;;;;208.77;62.17;;;4.00;99.90;;;;;;5103418;27;20391;-80
2022/01/16 04:47:15;;;;;;;223.57;65.30;;;4.00;99.90;;;;;;5105792;27;20484;-80
2022/01/16 04:49:41;;;;;;;207.10;63.97;;;4.00;99.90;;;;;;5137623;27;20046;-80
2022/01/16 04:52:07;;;;;;;219.10;65.22;;;4.00;99.90;;;;;;5138084;27;20046;-80
2022/01/16 04:54:33;;;;;;;194.38;59.83;;;4.00;99.90;;;;;;5097367;27;20062;-84
2022/01/16 04:56:59;;;;;;;204.45;62.08;;;4.00;99.90;;;;;;5094858;27;20059;-80
2022/01/16 04:59:24;;;;;;;202.52;62.05;;;4.10;99.90;;;;;;5083547;27;20496;-86
2022/01/16 05:01:51;;;;;;;198.88;60.88;;;4.10;99.90;;;;;;5120784;27;20042;-80
2022/01/16 05:04:17;;;;;;;203.95;63.55;;;4.10;99.90;;;;;;5126591;27;20168;-80
2022/01/16 05:06:43;;;;;;;183.70;60.40;;;4.20;99.90;;;;;;5118279;27;20121;-80
2022/01/16 05:09:08;;;;;;;198.43;63.28;;;4.20;99.90;;;;;;5103364;27;20540;-80
2022/01/16 05:11:34;;;;;;;193.85;59.05;;;4.20;99.90;;;;;;5120085;27;20054;-82
2022/01/16 05:16:37;;;;;;;197.80;60.20;;;4.20;99.90;;;;;;5117268;27;20047;-79
2022/01/16 05:19:13;;;;;;;198.95;62.28;;;4.20;99.90;;;;;;5135955;27;20092;-80
2022/01/16 05:21:40;;;;;;;178.05;61.15;;;4.20;99.90;;;;;;5137338;27;20406;-80
2022/01/16 05:24:10;;;;;;;185.70;62.10;;;4.20;99.90;;;;;;5102342;27;20065;-80
2022/01/16 05:26:41;;;;;;;172.90;58.75;;;4.20;99.90;;;;;;5120035;27;20138;-80
2022/01/16 05:29:07;;;;;;;186.43;60.38;;;4.30;99.90;;;;;;5118570;27;20050;-80
2022/01/16 05:31:32;;;;;;;181.93;60.80;;;4.20;99.90;;;;;;5099735;27;20047;-80
2022/01/16 05:33:58;;;;;;;184.63;63.75;;;4.30;99.90;;;;;;5094776;27;20517;-81
2022/01/16 05:36:24;;;;;;;184.93;62.15;;;4.30;99.90;;;;;;5116283;27;20129;-82
2022/01/16 05:38:52;;;;;;;180.48;62.42;;;4.30;99.90;;;;;;5099001;27;20051;-80
2022/01/16 05:41:19;;;;;;;192.45;61.33;;;4.30;99.90;;;;;;5114964;27;20054;-80
2022/01/16 05:43:45;;;;;;;180.82;60.80;;;4.30;99.90;;;;;;5119920;27;20046;-80
2022/01/16 05:46:11;;;;;;;200.30;62.58;;;4.30;99.90;;;;;;5119898;27;20121;-80
2022/01/16 05:48:37;;;;;;;184.70;64.72;;;4.30;99.90;;;;;;5119277;27;20129;-80
2022/01/16 05:51:03;;;;;;;183.65;61.17;;;4.30;99.90;;;;;;5110135;27;20420;-80
2022/01/16 05:53:28;;;;;;;182.73;59.53;;;4.30;99.90;;;;;;5115162;27;20364;-80
2022/01/16 05:55:54;;;;;;;164.10;56.38;;;4.40;99.90;;;;;;5129114;27;20074;-80
2022/01/16 05:58:20;;;;;;;189.75;63.95;;;4.40;99.90;;;;;;5078296;27;20045;-80
2022/01/16 06:00:47;;;;;;;169.13;61.65;;;4.40;99.90;;;;;;5118427;27;20070;-80
2022/01/16 06:03:13;;;;;;;154.10;59.13;;;4.40;99.90;;;;;;5119663;27;20058;-80
2022/01/16 06:05:39;;;;;;;161.43;59.88;;;4.40;99.90;;;;;;5133411;27;20627;-80
2022/01/16 06:08:11;;;;;;;144.80;57.30;;;4.40;99.90;;;;;;5102645;27;20053;-80
2022/01/16 06:10:37;;;;;;;143.57;56.47;;;4.50;99.90;;;;;;5089155;27;20133;-80
2022/01/16 06:13:04;;;;;;;147.15;59.17;;;4.50;99.90;;;;;;5118062;27;20495;-82
2022/01/16 06:15:30;;;;;;;140.82;58.75;;;4.50;99.90;;;;;;5111567;27;20399;-80
2022/01/16 06:17:56;;;;;;;118.70;55.28;;;4.60;99.90;;;;;;5118804;27;20398;-80
2022/01/16 06:20:22;;;;;;;115.20;53.85;;;4.60;99.90;;;;;;5115183;27;20034;-80
2022/01/16 06:22:48;;;;;;;120.28;54.40;;;4.60;99.90;;;;;;5101600;27;20073;-80
2022/01/16 06:25:14;;;;;;;92.20;47.60;;;4.60;99.90;;;;;;5116772;28;20084;-79
2022/01/16 06:27:40;;;;;;;93.63;47.28;;;4.70;99.90;;;;;;5106657;27;20054;-80
2022/01/16 06:30:09;;;;;;;84.97;44.92;;;4.80;99.90;;;;;;5110134;27;20131;-81
2022/01/16 06:32:35;;;;;;;69.63;42.25;;;4.80;99.90;;;;;;5114988;27;20051;-80
2022/01/16 06:35:00;;;;;;;75.05;41.80;;;4.90;99.90;;;;;;5112262;27;20061;-80
2022/01/16 06:37:26;;;;;;;70.93;39.50;;;4.90;99.90;;;;;;5088962;27;20090;-78
2022/01/16 06:39:52;;;;;;;62.22;34.17;;;5.00;99.90;;;;;;5119423;27;20045;-78
2022/01/16 06:42:17;;;;;;;66.22;34.50;;;5.10;99.90;;;;;;5115961;27;20039;-80
2022/01/16 06:44:43;;;;;;;61.15;33.33;;;5.00;99.90;;;;;;5083199;28;20483;-80
2022/01/16 06:47:09;;;;;;;58.70;30.50;;;5.10;99.90;;;;;;5114810;27;20035;-83
2022/01/16 06:49:35;;;;;;;53.33;29.92;;;5.10;99.90;;;;;;5131491;27;20043;-79
2022/01/16 06:52:01;;;;;;;51.05;29.63;;;5.10;99.90;;;;;;5134761;27;20035;-79
2022/01/16 06:54:27;;;;;;;45.92;28.83;;;5.10;99.90;;;;;;5098657;27;20057;-80
2022/01/16 06:56:52;;;;;;;44.40;25.75;;;5.10;99.90;;;;;;5117910;27;20501;-80
2022/01/16 06:59:18;;;;;;;46.47;27.45;;;5.10;99.90;;;;;;5118799;27;20083;-81
2022/01/16 07:01:44;;;;;;;45.33;28.85;;;5.20;99.90;;;;;;5131890;27;20094;-80
2022/01/16 07:04:10;;;;;;;54.17;29.70;;;5.20;99.90;;;;;;5108602;28;20047;-80
2022/01/16 07:06:35;;;;;;;46.03;28.08;;;5.20;99.90;;;;;;5106429;27;20043;-80
2022/01/16 07:09:01;;;;;;;47.80;29.23;;;5.20;99.90;;;;;;5117958;27;20153;-80
2022/01/16 07:11:27;;;;;;;44.75;26.50;;;5.00;99.90;;;;;;5118219;27;20478;-80
2022/01/16 07:13:53;;;;;;;46.97;26.65;;;5.20;99.90;;;;;;5116589;28;20051;-80
2022/01/16 07:16:18;;;;;;;42.90;26.10;;;5.10;99.90;;;;;;5081199;28;20042;-80
2022/01/16 07:18:44;;;;;;;42.17;27.67;;;5.10;99.90;;;;;;5112801;27;20038;-80
2022/01/16 07:21:13;;;;;;;48.35;28.13;;;5.10;99.90;;;;;;5134483;27;20039;-80
2022/01/16 07:23:53;;;;;;;52.15;28.08;;;5.20;99.90;;;;;;5113240;27;20057;-79
2022/01/16 07:26:19;;;;;;;49.38;27.88;;;5.10;99.90;;;;;;5095638;28;20098;-81
2022/01/16 07:28:45;;;;;;;49.90;28.92;;;5.10;99.90;;;;;;5098670;27;20056;-79
2022/01/16 07:31:11;;;;;;;54.40;29.67;;;5.00;99.90;;;;;;5108919;27;20054;-78
2022/01/16 07:33:37;;;;;;;51.67;28.27;;;5.10;99.90;;;;;;5111325;27;20047;-78
2022/01/16 07:36:03;;;;;;;50.88;27.77;;;5.20;99.90;;;;;;5113444;27;20475;-79
2022/01/16 07:38:29;;;;;;;46.90;28.38;;;5.20;99.90;;;;;;5114137;27;20042;-79
2022/01/16 07:40:55;;;;;;;46.55;27.58;;;5.20;99.90;;;;;;5077343;28;20475;-82
2022/01/16 07:43:20;;;;;;;44.47;25.92;;;5.30;99.90;;;;;;5108918;27;20039;-80
2022/01/16 07:45:46;;;;;;;44.90;24.67;;;5.40;99.90;;;;;;5111855;27;20039;-80
2022/01/16 07:48:12;;;;;;;42.55;25.67;;;5.30;99.90;;;;;;5110008;27;20046;-80
2022/01/16 07:50:39;;;;;;;42.88;24.60;;;5.40;99.90;;;;;;5115259;27;20130;-82
2022/01/16 07:53:04;;;;;;;40.15;22.20;;;5.50;99.90;;;;;;5095323;27;20061;-80
2022/01/16 07:55:31;;;;;;;39.95;21.45;;;5.40;99.90;;;;;;5115086;27;20050;-80
2022/01/16 07:57:57;;;;;;;51.22;23.35;;;5.50;99.90;;;;;;5129423;27;20051;-80
2022/01/16 08:00:24;;;;;;;46.95;24.55;;;5.50;99.90;;;;;;5134473;27;20050;-81
2022/01/16 08:02:50;;;;;;;49.30;24.45;;;5.50;99.90;;;;;;5123527;27;20090;-80
2022/01/16 08:05:17;;;;;;;39.90;21.58;;;5.50;99.90;;;;;;5104487;27;20126;-81
2022/01/16 08:07:44;;;;;;;45.05;24.17;;;5.60;99.90;;;;;;5133685;27;20804;-80
2022/01/16 08:10:10;;;;;;;45.15;25.75;;;5.60;99.90;;;;;;5132915;27;20046;-81
2022/01/16 08:12:36;;;;;;;47.05;25.73;;;5.60;99.90;;;;;;5108230;27;20039;-80
2022/01/16 08:15:04;;;;;;;48.00;26.52;;;5.60;99.90;;;;;;5106170;27;20066;-80
2022/01/16 08:17:30;;;;;;;49.85;24.52;;;5.60;99.90;;;;;;5106226;28;20047;-80
2022/01/16 08:19:55;;;;;;;47.60;24.63;;;5.50;99.90;;;;;;5113642;27;20043;-80
2022/01/16 08:22:21;;;;;;;51.75;27.40;;;5.60;99.90;;;;;;5117631;27;20400;-80
2022/01/16 08:24:47;;;;;;;52.60;25.92;;;5.60;99.90;;;;;;5100870;27;20047;-84
2022/01/16 08:27:15;;;;;;;63.78;26.67;;;5.60;99.90;;;;;;5117478;27;20047;-80
2022/01/16 08:29:41;;;;;;;51.88;25.80;;;5.60;99.90;;;;;;5112871;28;20048;-81
2022/01/16 08:32:08;;;;;;;49.90;25.08;;;5.60;99.90;;;;;;5104867;27;20043;-81
2022/01/16 08:34:33;;;;;;;54.53;26.35;;;5.70;99.90;;;;;;5092079;27;20490;-80
2022/01/16 08:36:59;;;;;;;56.85;26.67;;;5.70;99.90;;;;;;5128514;27;20069;-83
2022/01/16 08:39:25;;;;;;;60.88;27.35;;;5.70;99.90;;;;;;5134103;27;20431;-81
2022/01/16 08:41:50;;;;;;;64.30;30.48;;;5.70;99.90;;;;;;5112181;27;20043;-81
2022/01/16 08:44:16;;;;;;;60.25;26.83;;;5.70;99.90;;;;;;5116665;27;20051;-80
2022/01/16 08:46:42;;;;;;;58.60;28.02;;;5.70;99.90;;;;;;5113419;28;20036;-80
2022/01/16 08:49:07;;;;;;;61.15;28.10;;;5.70;99.90;;;;;;5122642;27;20051;-80
2022/01/16 08:51:33;;;;;;;66.38;28.30;;;5.80;99.90;;;;;;5111607;27;20050;-80
2022/01/16 08:53:59;;;;;;;62.88;28.80;;;5.90;99.90;;;;;;5116273;27;20051;-81
2022/01/16 08:56:26;;;;;;;60.95;28.27;;;5.90;99.90;;;;;;5099064;27;20047;-80
2022/01/16 08:58:51;;;;;;;63.22;29.65;;;5.90;99.90;;;;;;5116984;27;20123;-81
2022/01/16 09:01:17;;;;;;;66.25;30.92;;;5.90;99.90;;;;;;5116001;27;20529;-81
2022/01/16 09:03:43;;;;;;;66.30;30.85;;;6.00;99.90;;;;;;5075055;27;20073;-81
2022/01/16 09:06:08;;;;;;;60.60;30.70;;;6.00;99.90;;;;;;5112686;27;20035;-80
2022/01/16 09:08:34;;;;;;;62.95;31.02;;;6.00;99.90;;;;;;5095893;28;20552;-80
2022/01/16 09:11:01;;;;;;;59.53;30.88;;;6.10;99.90;;;;;;5086827;27;20044;-81
2022/01/16 09:13:26;;;;;;;64.53;30.52;;;6.10;99.90;;;;;;5092830;27;20058;-82
2022/01/16 09:15:52;;;;;;;59.58;28.38;;;6.10;99.90;;;;;;5103934;27;20043;-86
2022/01/16 09:18:19;;;;;;;62.83;29.90;;;6.10;99.90;;;;;;5101084;27;20398;-82
2022/01/16 09:20:45;;;;;;;63.22;28.98;;;6.10;99.90;;;;;;5117010;27;20047;-80
2022/01/16 09:23:12;;;;;;;63.38;27.55;;;6.10;99.90;;;;;;5080996;27;20047;-80
2022/01/16 09:25:38;;;;;;;62.58;29.63;;;6.10;99.90;;;;;;5130245;27;20074;-83
2022/01/16 09:28:05;;;;;;;58.22;27.08;;;6.10;99.90;;;;;;5088030;27;20055;-80
2022/01/16 09:30:31;;;;;;;48.45;25.25;;;6.20;99.90;;;;;;5110668;27;20399;-80
2022/01/16 09:32:57;;;;;;;64.88;28.17;;;6.20;99.90;;;;;;5119323;27;20051;-81
2022/01/16 09:35:23;;;;;;;58.63;26.20;;;6.30;99.90;;;;;;5102001;27;20514;-80
2022/01/16 09:37:49;;;;;;;60.28;28.00;;;6.20;99.90;;;;;;5111006;28;20427;-81
2022/01/16 09:40:18;;;;;;;56.88;27.08;;;6.30;99.90;;;;;;5098142;27;20054;-81
2022/01/16 09:42:45;;;;;;;50.75;25.02;;;6.30;99.90;;;;;;5099128;27;20046;-81
2022/01/16 09:45:12;;;;;;;55.13;23.65;;;6.30;99.90;;;;;;5117010;27;20476;-80
2022/01/16 09:47:38;;;;;;;48.78;24.73;;;6.30;99.90;;;;;;5101205;27;20484;-81
2022/01/16 09:50:07;;;;;;;57.53;23.15;;;6.30;99.90;;;;;;5075892;27;20072;-80
2022/01/16 09:52:41;;;;;;;56.45;24.63;;;6.40;99.90;;;;;;5106288;28;20148;-79
2022/01/16 09:55:08;;;;;;;56.83;22.50;;;6.40;99.90;;;;;;5065317;28;20206;-82
2022/01/16 09:57:34;;;;;;;38.40;21.13;;;6.40;99.90;;;;;;5073393;28;20485;-82
2022/01/16 10:00:00;;;;;;;54.22;23.38;;;6.40;99.90;;;;;;5092754;28;20061;-80
2022/01/16 10:02:26;;;;;;;53.22;20.92;;;6.40;99.90;;;;;;5070230;27;20484;-80
2022/01/16 10:04:53;;;;;;;49.90;20.67;;;6.40;99.90;;;;;;5074134;27;20036;-79
2022/01/16 10:07:19;;;;;;;48.25;21.45;;;6.50;99.90;;;;;;5074281;28;20541;-78
2022/01/16 10:10:09;;;;;;;50.50;21.30;;;6.50;99.90;;;;;;5070080;27;20043;-78
2022/01/16 10:12:40;;;;;;;46.40;19.50;;;6.50;99.90;;;;;;5088032;28;20452;-78
2022/01/16 10:15:35;;;;;;;46.47;18.27;;;6.50;99.90;;;;;;5064882;28;20050;-79
2022/01/16 10:18:04;;;;;;;50.30;19.65;;;6.50;99.90;;;;;;5059513;28;20052;-80
2022/01/16 10:20:41;;;;;;;42.38;19.05;;;6.50;99.90;;;;;;5106767;28;20100;-79
2022/01/16 10:23:19;;;;;;;39.05;16.98;;;6.50;99.90;;;;;;5071261;28;20496;-78
2022/01/16 10:25:48;;;;;;;36.47;16.85;;;6.60;99.90;;;;;;5065604;28;20101;-80
2022/01/16 10:28:20;;;;;;;42.17;17.50;;;6.60;99.90;;;;;;5085764;28;20055;-81
2022/01/16 10:30:48;;;;;;;44.95;15.95;;;6.60;99.90;;;;;;5088693;27;20050;-78
2022/01/16 10:33:17;;;;;;;40.63;15.93;;;6.60;99.90;;;;;;5081777;28;20104;-82
2022/01/16 10:35:47;;;;;;;46.38;18.40;;;6.70;99.90;;;;;;5074313;28;20055;-81
2022/01/16 10:38:21;;;;;;;38.28;15.07;;;6.50;99.90;;;;;;5072299;28;20051;-80
2022/01/16 10:40:51;;;;;;;41.03;15.40;;;6.70;99.90;;;;;;5089092;28;20048;-79
2022/01/16 10:43:35;;;;;;;30.92;13.13;;;6.70;99.90;;;;;;5053375;28;20488;-82
2022/01/16 10:46:01;;;;;;;35.55;14.20;;;6.70;99.90;;;;;;5076509;28;20078;-82
2022/01/16 10:48:27;;;;;;;38.20;14.77;;;6.70;99.90;;;;;;5071293;28;20078;-80
2022/01/16 10:50:55;;;;;;;41.47;15.40;;;6.70;99.90;;;;;;5072692;28;20564;-85
2022/01/16 10:53:30;;;;;;;40.33;13.82;;;6.80;99.90;;;;;;5070121;28;20532;-81
2022/01/16 10:56:03;;;;;;;32.40;13.55;;;6.80;99.90;;;;;;5124906;28;20382;-80
2022/01/16 10:58:35;;;;;;;31.63;12.90;;;6.70;99.90;;;;;;5127320;28;20487;-82
2022/01/16 11:01:07;;;;;;;38.03;12.95;;;6.80;99.90;;;;;;5104346;28;20138;-81
2022/01/16 11:03:58;;;;;;;39.08;11.05;;;6.70;99.90;;;;;;5126276;28;20353;-82
2022/01/16 11:06:28;;;;;;;37.08;11.23;;;6.80;99.90;;;;;;5119427;28;20075;-83
2022/01/16 11:09:03;;;;;;;33.03;10.52;;;6.80;99.90;;;;;;5109079;28;20097;-82
2022/01/16 11:11:28;;;;;;;30.67;10.70;;;6.80;99.90;;;;;;5094600;28;20047;-80
2022/01/16 11:13:56;;;;;;;31.00;10.23;;;6.80;99.90;;;;;;5111506;28;20051;-81
2022/01/16 11:16:23;;;;;;;25.80;9.45;;;6.90;99.90;;;;;;5102069;28;20043;-81
2022/01/16 11:18:51;;;;;;;26.50;9.63;;;6.90;99.90;;;;;;5131803;28;20047;-82
2022/01/16 11:21:30;;;;;;;32.28;11.20;;;6.90;99.90;;;;;;5114286;27;20576;-81
2022/01/16 11:24:22;;;;;;;22.17;8.10;;;6.90;99.90;;;;;;5113538;27;20089;-83
2022/01/16 11:26:47;;;;;;;33.28;9.65;;;6.90;99.90;;;;;;5117036;27;20043;-83
2022/01/16 11:29:13;;;;;;;31.55;9.85;;;7.00;99.90;;;;;;5116941;27;20043;-82
2022/01/16 11:31:43;;;;;;;36.92;10.55;;;7.00;99.90;;;;;;5125556;27;20047;-82
2022/01/16 11:34:09;;;;;;;27.80;10.07;;;7.00;99.90;;;;;;5135004;27;20043;-82
2022/01/16 11:36:35;;;;;;;29.75;11.15;;;6.90;99.90;;;;;;5105284;27;20652;-83
2022/01/16 11:39:05;;;;;;;30.25;9.13;;;7.00;99.90;;;;;;5115700;27;20048;-82
2022/01/16 11:41:37;;;;;;;30.27;10.45;;;7.00;99.90;;;;;;5114084;27;20081;-82
2022/01/16 11:44:04;;;;;;;27.50;10.35;;;7.00;99.90;;;;;;5125172;27;20116;-82
2022/01/16 11:46:32;;;;;;;31.20;10.23;;;7.00;99.90;;;;;;5133820;27;20035;-82
2022/01/16 11:48:58;;;;;;;32.67;10.15;;;7.00;99.90;;;;;;5117816;27;20047;-82
2022/01/16 11:51:33;;;;;;;35.15;10.98;;;7.00;99.90;;;;;;5108543;27;20039;-82
2022/01/16 11:54:09;;;;;;;29.88;10.15;;;7.00;99.90;;;;;;5129152;27;20058;-81
2022/01/16 11:56:41;;;;;;;;;;;6.90;99.90;;;;;;5102397;27;20093;-83
2022/01/16 11:59:35;;;;;;;31.10;8.80;;;6.90;99.90;;;;;;5103925;27;20378;-82
2022/01/16 12:02:21;;;;;;;26.00;9.05;;;7.00;99.90;;;;;;5091084;27;20047;-82
2022/01/16 12:04:47;;;;;;;29.83;9.70;;;7.00;99.90;;;;;;5113530;27;20039;-82
2022/01/16 12:07:13;;;;;;;33.42;10.82;;;7.00;99.90;;;;;;5110829;27;20517;-81
2022/01/16 12:12:13;;;;;;;31.42;9.32;;;7.00;99.90;;;;;;5111355;27;20036;-82
2022/01/16 12:14:56;;;;;;;22.42;8.90;;;7.10;99.90;;;;;;5117560;27;20043;-83
2022/01/16 12:20:22;;;;;;;20.58;8.70;;;7.00;99.90;;;;;;5106222;27;20048;-82
2022/01/16 12:22:55;;;;;;;26.08;8.63;;;6.90;99.90;;;;;;5103567;27;20074;-82
2022/01/16 12:25:36;;;;;;;26.40;8.43;;;6.90;99.90;;;;;;5103728;28;20177;-82
2022/01/16 12:28:04;;;;;;;23.92;9.05;;;6.90;99.90;;;;;;5100478;27;20118;-83
2022/01/16 12:30:48;;;;;;;25.98;8.77;;;6.90;99.90;;;;;;5098905;27;20082;-83
2022/01/16 12:33:45;;;;;;;27.75;8.45;;;6.80;99.90;;;;;;5107530;27;20042;-80
2022/01/16 12:36:34;;;;;;;21.98;7.90;;;6.80;99.90;;;;;;5115374;27;20478;-84
2022/01/16 12:39:04;;;;;;;25.08;8.75;;;6.70;99.90;;;;;;5126866;27;20039;-82
2022/01/16 12:41:45;;;;;;;26.08;8.60;;;6.70;99.90;;;;;;5119830;27;20042;-84
2022/01/16 12:44:13;;;;;;;23.88;8.90;;;6.80;99.90;;;;;;5096505;27;20046;-84
2022/01/16 12:46:44;;;;;;;25.48;8.73;;;6.80;99.90;;;;;;5111425;28;20047;-84
2022/01/16 12:49:12;;;;;;;26.75;8.85;;;6.80;99.90;;;;;;5095300;27;20053;-81
2022/01/16 12:51:40;;;;;;;26.05;8.15;;;6.70;99.90;;;;;;5116577;27;20126;-82
2022/01/16 12:54:15;;;;;;;24.98;9.07;;;6.80;99.90;;;;;;5109225;27;20050;-81
2022/01/16 12:56:50;;;;;;;29.10;8.73;;;6.80;99.90;;;;;;5117429;27;20129;-83
2022/01/16 12:59:23;;;;;;;30.80;8.50;;;6.90;99.90;;;;;;5102774;27;20047;-84
2022/01/16 13:01:57;;;;;;;26.15;8.98;;;6.90;99.90;;;;;;5116466;27;20072;-82
2022/01/16 13:04:26;;;;;;;28.60;8.85;;;6.90;99.90;;;;;;5134405;27;20053;-82
2022/01/16 13:07:00;;;;;;;29.10;10.02;;;6.90;99.90;;;;;;5115035;27;20039;-84
2022/01/16 13:09:27;;;;;;;25.77;9.00;;;6.90;99.90;;;;;;5105527;27;20453;-83
2022/01/16 13:11:56;;;;;;;31.27;8.80;;;7.00;99.90;;;;;;5099190;27;20066;-83
2022/01/16 13:14:31;;;;;;;28.38;9.13;;;7.00;99.90;;;;;;5109551;27;20711;-82
2022/01/16 13:17:00;;;;;;;30.00;8.83;;;7.00;99.90;;;;;;5106281;28;20075;-83
2022/01/16 13:19:49;;;;;;;30.27;10.10;;;7.00;99.90;;;;;;5105904;27;20053;-84
2022/01/16 13:22:16;;;;;;;28.83;9.73;;;7.00;99.90;;;;;;5098099;27;20093;-85
2022/01/16 13:24:58;;;;;;;33.95;10.27;;;7.00;99.90;;;;;;5110734;27;20050;-85
2022/01/16 13:27:26;;;;;;;26.23;10.15;;;6.90;99.90;;;;;;5107913;27;20047;-83
2022/01/16 13:30:01;;;;;;;35.58;12.10;;;6.90;99.90;;;;;;5111363;27;20051;-84
2022/01/16 13:32:33;;;;;;;30.77;11.07;;;6.80;99.90;;;;;;5085871;27;20093;-82
2022/01/16 13:34:59;;;;;;;29.58;10.65;;;6.80;99.90;;;;;;5110156;27;20054;-82